Time;durP1;ratioP1;P1;durP2;ratioP2;P2;SDS_P1;SDS_P2;PMS_P1;PMS_P2;Temp;Humidity;BMP_temperature;BMP_pressure;BME280_temperature;BME280_humidity;BME280_pressure;Samples;Min_cycle;Max_cycle;Signal;HPM_P1;HPM_P2
2022/07/27 00:00:07;;;;;;;8.98;8.27;;;;;;;21.22;56.67;100113.72;4884850;28;97172;-81
2022/07/27 00:02:37;;;;;;;8.00;7.30;;;;;;;21.09;57.02;100095.19;4898210;28;98401;-81
2022/07/27 00:05:03;;;;;;;8.73;8.13;;;;;;;21.29;56.82;100119.38;4916974;28;104806;-81
2022/07/27 00:07:28;;;;;;;9.38;8.50;;;;;;;21.23;56.72;100108.25;4883560;28;97040;-81
2022/07/27 00:09:53;;;;;;;9.95;9.00;;;;;;;21.34;56.70;100118.03;4880657;28;96878;-83
2022/07/27 00:12:19;;;;;;;9.30;8.63;;;;;;;21.22;56.94;100114.56;4897635;28;101004;-82
2022/07/27 00:14:44;;;;;;;9.00;8.30;;;;;;;21.10;57.18;100110.22;4895535;28;101663;-81
2022/07/27 00:17:10;;;;;;;8.90;8.20;;;;;;;21.11;57.12;100108.41;4894134;28;98233;-81
2022/07/27 00:19:35;;;;;;;8.80;8.18;;;;;;;21.16;56.94;100117.72;4884987;28;96975;-82
2022/07/27 00:22:01;;;;;;;9.68;8.77;;;;;;;21.03;57.16;100099.22;4899474;28;101334;-81
2022/07/27 00:24:26;;;;;;;9.23;8.63;;;;;;;21.14;57.01;100118.81;4899074;28;98245;-81
2022/07/27 00:26:52;;;;;;;8.60;7.90;;;;;;;20.98;57.34;100116.56;4879746;28;96812;-82
2022/07/27 00:29:17;;;;;;;8.80;8.10;;;;;;;21.03;57.52;100128.56;4884970;28;97031;-84
2022/07/27 00:31:43;;;;;;;9.20;8.50;;;;;;;20.89;57.70;100109.31;4908726;28;101304;-81
2022/07/27 00:34:08;;;;;;;9.82;9.02;;;;;;;20.89;57.76;100130.66;4882590;28;101701;-81
2022/07/27 00:36:34;;;;;;;10.93;9.07;;;;;;;20.83;57.84;100125.78;4883092;28;96675;-81
2022/07/27 00:38:59;;;;;;;10.55;8.50;;;;;;;20.79;58.13;100123.34;4915384;28;97140;-81
2022/07/27 00:41:25;;;;;;;9.90;9.10;;;;;;;20.84;57.78;100131.00;4881786;28;101559;-82
2022/07/27 00:43:58;;;;;;;9.32;8.63;;;;;;;20.80;57.92;100129.56;4907813;28;97759;-81
2022/07/27 00:46:25;;;;;;;9.77;9.02;;;;;;;20.85;57.91;100123.84;4886287;28;97003;-82
2022/07/27 00:48:50;;;;;;;9.82;9.02;;;;;;;20.72;58.03;100126.66;4895078;28;96966;-81
2022/07/27 00:51:17;;;;;;;9.23;8.45;;;;;;;20.66;58.31;100137.81;4882232;28;101283;-81
2022/07/27 00:53:43;;;;;;;9.63;8.73;;;;;;;20.64;58.32;100134.41;4903415;28;98409;-82
2022/07/27 00:56:08;;;;;;;9.93;9.05;;;;;;;20.55;58.65;100134.16;4903875;28;96849;-83
2022/07/27 00:58:34;;;;;;;10.70;9.68;;;;;;;20.47;59.12;100127.69;4895702;28;97218;-82
2022/07/27 01:01:00;;;;;;;10.18;9.48;;;;;;;20.38;59.37;100115.09;4883004;28;101323;-82
2022/07/27 01:03:25;;;;;;;9.75;8.98;;;;;;;20.44;59.26;100138.59;4916938;28;101211;-82
2022/07/27 01:05:51;;;;;;;10.05;9.23;;;;;;;20.46;58.99;100129.50;4915048;28;96733;-82
2022/07/27 01:08:16;;;;;;;9.82;8.95;;;;;;;20.43;58.81;100112.91;4896426;28;96985;-82
2022/07/27 01:10:42;;;;;;;10.43;9.63;;;;;;;20.41;59.02;100115.69;4887038;28;101405;-82
2022/07/27 01:13:08;;;;;;;10.43;9.60;;;;;;;20.36;59.25;100131.19;4923682;28;97849;-81
2022/07/27 01:15:34;;;;;;;8.98;8.38;;;;;;;20.38;59.49;100134.59;4898041;28;97111;-82
2022/07/27 01:17:59;;;;;;;9.98;9.07;;;;;;;20.21;59.63;100108.41;4891540;28;97074;-82
2022/07/27 01:20:24;;;;;;;9.88;9.20;;;;;;;20.27;59.64;100132.75;4899458;28;101152;-82
2022/07/27 01:22:50;;;;;;;9.68;9.00;;;;;;;20.26;59.85;100140.88;4882221;28;101780;-83
2022/07/27 01:25:15;;;;;;;10.45;9.43;;;;;;;20.30;59.70;100143.19;4895781;28;97328;-81
2022/07/27 01:27:41;;;;;;;10.05;9.30;;;;;;;20.29;59.78;100141.50;4911629;28;97257;-82
2022/07/27 01:30:25;;;;;;;9.60;8.68;;;;;;;20.26;59.96;100144.38;4914916;28;97682;-81
2022/07/27 01:33:04;;;;;;;12.27;9.55;;;;;;;20.26;59.99;100141.72;4901040;28;101629;-81
2022/07/27 01:35:30;;;;;;;10.43;9.43;;;;;;;20.23;60.03;100130.47;4880327;28;98075;-81
2022/07/27 01:37:56;;;;;;;10.20;9.40;;;;;;;20.10;60.50;100141.19;4895070;28;97031;-82
2022/07/27 01:40:22;;;;;;;9.27;8.63;;;;;;;20.15;60.57;100139.03;4913729;28;97482;-82
2022/07/27 01:42:48;;;;;;;9.65;8.80;;;;;;;20.10;60.72;100144.72;4901856;28;101433;-82
2022/07/27 01:45:14;;;;;;;9.50;8.85;;;;;;;20.08;60.58;100136.00;4898455;28;96814;-82
2022/07/27 01:47:39;;;;;;;10.85;9.63;;;;;;;20.08;60.63;100127.16;4882021;28;96891;-84
2022/07/27 01:50:05;;;;;;;10.52;9.63;;;;;;;20.12;60.43;100141.94;4914325;28;101394;-82
2022/07/27 01:52:30;;;;;;;9.90;9.20;;;;;;;20.15;60.38;100146.19;4892701;28;101142;-82
2022/07/27 01:54:56;;;;;;;10.18;9.48;;;;;;;20.05;60.70;100133.56;4893688;28;96799;-84
2022/07/27 01:57:21;;;;;;;12.68;9.10;;;;;;;20.09;60.75;100139.50;4914513;28;97675;-82
2022/07/27 01:59:47;;;;;;;9.95;9.18;;;;;;;20.03;61.13;100140.81;4883766;28;101451;-81
2022/07/27 02:02:14;;;;;;;9.48;8.77;;;;;;;20.07;60.79;100142.31;4881903;28;101133;-82
2022/07/27 02:04:43;;;;;;;10.93;9.98;;;;;;;20.09;60.87;100128.84;4900336;28;97272;-83
2022/07/27 02:07:08;;;;;;;9.82;8.77;;;;;;;20.10;60.74;100133.19;4882053;28;96891;-81
2022/07/27 02:09:34;;;;;;;9.73;8.85;;;;;;;20.09;60.75;100142.16;4900768;28;101334;-81
2022/07/27 02:14:43;;;;;;;10.52;9.82;;;;;;;20.00;61.15;100137.56;4918569;28;96791;-82
2022/07/27 02:17:09;;;;;;;10.07;9.38;;;;;;;19.98;61.02;100131.47;4904512;28;96792;-82
2022/07/27 02:19:34;;;;;;;9.50;8.90;;;;;;;20.05;61.15;100156.72;4881349;28;101167;-81
2022/07/27 02:22:00;;;;;;;10.25;9.57;;;;;;;20.00;61.21;100146.38;4894776;28;99862;-82
2022/07/27 02:24:25;;;;;;;10.07;9.38;;;;;;;20.06;61.26;100164.56;4895217;28;96836;-85
2022/07/27 02:26:51;;;;;;;12.40;10.02;;;;;;;20.07;61.24;100160.09;4914149;28;96829;-81
2022/07/27 02:29:16;;;;;;;10.52;9.60;;;;;;;20.07;61.04;100163.63;4898879;28;100458;-82
2022/07/27 02:31:42;;;;;;;10.35;9.52;;;;;;;20.00;61.22;100164.19;4899490;28;99898;-81
2022/07/27 02:34:07;;;;;;;9.43;8.82;;;;;;;19.95;61.33;100153.88;4897187;28;97280;-82
2022/07/27 02:36:33;;;;;;;10.25;9.50;;;;;;;19.96;61.42;100147.59;4901444;28;98226;-82
2022/07/27 02:38:58;;;;;;;10.38;9.68;;;;;;;20.11;61.28;100159.75;4897341;28;100975;-82
2022/07/27 02:41:24;;;;;;;13.00;9.65;;;;;;;20.05;61.17;100165.53;4894347;28;97818;-82
2022/07/27 02:43:49;;;;;;;10.57;9.85;;;;;;;20.01;61.51;100165.88;4897293;28;96735;-82
2022/07/27 02:46:14;;;;;;;10.80;9.73;;;;;;;19.93;61.67;100153.16;4885094;28;97791;-81
2022/07/27 02:48:40;;;;;;;10.85;9.90;;;;;;;19.96;61.44;100154.75;4894902;28;101665;-81
2022/07/27 02:51:05;;;;;;;9.90;9.10;;;;;;;19.90;61.39;100146.25;4896954;28;101908;-83
2022/07/27 02:53:31;;;;;;;11.35;10.15;;;;;;;20.01;61.55;100153.44;4912660;28;96626;-81
2022/07/27 02:55:57;;;;;;;11.05;9.90;;;;;;;19.97;61.88;100154.63;4881056;28;100301;-81
2022/07/27 02:58:23;;;;;;;10.77;9.77;;;;;;;19.94;61.82;100159.34;4893213;28;97739;-81
2022/07/27 03:00:49;;;;;;;11.20;10.15;;;;;;;19.78;62.07;100154.28;4894395;28;101721;-81
2022/07/27 03:03:14;;;;;;;10.90;9.98;;;;;;;19.80;61.89;100145.22;4881309;28;97236;-81
2022/07/27 03:05:40;;;;;;;10.63;9.85;;;;;;;19.95;61.58;100171.69;4883945;28;96902;-82
2022/07/27 03:08:05;;;;;;;10.23;9.45;;;;;;;19.95;61.61;100171.69;4884405;28;101220;-82
2022/07/27 03:10:31;;;;;;;10.48;9.85;;;;;;;19.95;61.76;100177.84;4900110;28;101275;-84
2022/07/27 03:12:57;;;;;;;10.52;9.50;;;;;;;19.83;61.80;100145.00;4904322;28;96749;-81
2022/07/27 03:15:23;;;;;;;12.00;11.02;;;;;;;19.84;62.07;100172.50;4881375;28;96939;-82
2022/07/27 03:17:48;;;;;;;11.43;10.45;;;;;;;19.93;61.76;100185.13;4907501;28;101788;-82
2022/07/27 03:20:14;;;;;;;10.75;9.95;;;;;;;19.95;61.76;100185.84;4925091;28;97543;-81
2022/07/27 03:22:39;;;;;;;10.90;9.80;;;;;;;19.81;61.85;100165.59;4903947;28;97059;-82
2022/07/27 03:25:05;;;;;;;10.90;10.20;;;;;;;19.93;61.96;100195.78;4910231;28;96951;-81
2022/07/27 03:27:31;;;;;;;10.63;9.93;;;;;;;19.77;62.11;100173.91;4919258;28;97474;-85
2022/07/27 03:29:57;;;;;;;10.60;9.80;;;;;;;19.80;62.48;100184.34;4898753;28;101282;-81
2022/07/27 03:32:22;;;;;;;10.40;9.60;;;;;;;19.86;62.01;100179.38;4884203;28;96923;-82
2022/07/27 03:34:48;;;;;;;10.43;9.63;;;;;;;19.82;61.92;100183.25;4900414;28;97059;-82
2022/07/27 03:37:15;;;;;;;12.70;11.60;;;;;;;19.85;61.99;100176.84;4901160;28;101434;-82
2022/07/27 03:39:41;;;;;;;11.43;10.55;;;;;;;19.55;62.81;100178.16;4901172;28;101178;-82
2022/07/27 03:42:06;;;;;;;12.52;11.63;;;;;;;19.20;63.62;100178.91;4894484;28;97027;-82
2022/07/27 03:44:32;;;;;;;12.30;11.30;;;;;;;18.93;64.24;100181.72;4920808;28;96875;-84
2022/07/27 03:46:57;;;;;;;12.13;10.98;;;;;;;18.84;64.45;100182.38;4917244;28;98349;-81
2022/07/27 03:49:23;;;;;;;12.23;11.32;;;;;;;18.89;64.44;100187.38;4901435;28;101555;-82
2022/07/27 03:51:48;;;;;;;12.70;11.65;;;;;;;18.82;64.96;100184.31;4905674;28;97127;-82
2022/07/27 03:54:16;;;;;;;12.15;11.05;;;;;;;18.84;64.58;100185.03;4922785;28;96845;-81
2022/07/27 03:56:42;;;;;;;12.68;11.57;;;;;;;18.66;64.98;100176.50;4890763;28;100763;-81
2022/07/27 03:59:08;;;;;;;12.23;11.30;;;;;;;18.67;65.14;100175.53;4900718;28;96822;-82
2022/07/27 04:01:34;;;;;;;11.70;10.80;;;;;;;18.64;65.45;100169.59;4899942;28;96849;-85
2022/07/27 04:03:59;;;;;;;12.23;11.15;;;;;;;18.58;65.21;100157.56;4905973;28;96909;-82
2022/07/27 04:06:24;;;;;;;13.48;12.18;;;;;;;18.59;65.38;100155.75;4864636;28;101664;-82
2022/07/27 04:08:50;;;;;;;12.32;11.43;;;;;;;18.46;65.51;100156.63;4882558;28;101634;-82
2022/07/27 04:11:15;;;;;;;12.07;11.10;;;;;;;18.47;65.59;100149.50;4883620;28;96993;-81
2022/07/27 04:13:42;;;;;;;13.63;11.32;;;;;;;18.69;65.10;100162.16;4899112;28;97013;-82
2022/07/27 04:16:07;;;;;;;11.98;11.07;;;;;;;18.90;64.61;100165.13;4883550;28;100769;-82
2022/07/27 04:18:33;;;;;;;14.23;10.88;;;;;;;19.11;64.04;100160.94;4883503;28;101199;-82
2022/07/27 04:21:00;;;;;;;12.02;11.00;;;;;;;19.16;63.37;100137.50;4883292;28;96757;-81
2022/07/27 04:23:26;;;;;;;12.18;10.98;;;;;;;19.34;63.03;100147.75;4884604;28;96887;-81
2022/07/27 04:25:51;;;;;;;11.60;10.68;;;;;;;19.40;62.52;100147.31;4898376;28;101695;-82
2022/07/27 04:28:17;;;;;;;12.10;11.10;;;;;;;19.58;62.14;100147.78;4881833;28;101157;-82
2022/07/27 04:30:42;;;;;;;12.43;11.43;;;;;;;19.67;61.68;100147.13;4903461;28;96621;-82
2022/07/27 04:33:08;;;;;;;12.15;11.15;;;;;;;19.68;61.70;100147.00;4896339;28;96976;-82
2022/07/27 04:35:33;;;;;;;12.15;11.15;;;;;;;19.74;61.68;100150.19;4887593;28;101284;-82
2022/07/27 04:37:59;;;;;;;11.10;9.95;;;;;;;19.79;61.63;100156.84;4900262;28;97439;-81
2022/07/27 04:40:24;;;;;;;11.25;10.18;;;;;;;19.84;61.72;100160.03;4909414;28;97038;-81
2022/07/27 04:42:50;;;;;;;11.20;10.40;;;;;;;19.88;61.44;100168.63;4884418;28;96954;-82
2022/07/27 04:45:15;;;;;;;11.35;10.27;;;;;;;19.88;60.94;100165.97;4887372;28;101061;-81
2022/07/27 04:47:40;;;;;;;12.07;10.90;;;;;;;19.89;60.81;100167.66;4914948;28;98262;-81
2022/07/27 04:50:06;;;;;;;10.50;9.80;;;;;;;19.82;61.19;100159.28;4896453;28;96715;-81
2022/07/27 04:52:32;;;;;;;12.93;11.52;;;;;;;20.06;60.91;100155.72;4888802;28;96985;-81
2022/07/27 04:54:57;;;;;;;11.98;11.18;;;;;;;20.06;60.63;100147.75;4897907;28;101183;-81
2022/07/27 04:57:23;;;;;;;11.93;10.93;;;;;;;20.02;60.84;100140.97;4895814;28;101118;-81
2022/07/27 04:59:48;;;;;;;13.15;12.05;;;;;;;20.15;60.63;100140.84;4880748;28;97842;-82
2022/07/27 05:02:14;;;;;;;12.38;11.30;;;;;;;20.16;60.44;100138.09;4907630;28;96874;-81
2022/07/27 05:04:39;;;;;;;11.85;10.90;;;;;;;20.29;60.16;100149.47;4910345;28;97487;-83
2022/07/27 05:07:05;;;;;;;12.80;11.70;;;;;;;20.37;59.76;100153.38;4898686;28;98406;-81
2022/07/27 05:09:30;;;;;;;12.80;11.50;;;;;;;20.56;59.41;100151.84;4887356;28;96999;-82
2022/07/27 05:11:55;;;;;;;11.48;10.57;;;;;;;20.75;59.35;100159.25;4883502;28;97019;-81
2022/07/27 05:14:22;;;;;;;11.98;10.68;;;;;;;20.56;59.16;100141.16;4871480;28;99476;-81
2022/07/27 05:16:48;;;;;;;12.63;11.50;;;;;;;20.77;59.04;100164.47;4885171;28;100030;-83
2022/07/27 05:19:13;;;;;;;11.77;10.80;;;;;;;20.84;58.79;100162.16;4902159;28;97098;-82
2022/07/27 05:21:39;;;;;;;11.98;10.82;;;;;;;21.19;58.20;100186.03;4902115;28;97189;-85
2022/07/27 05:24:05;;;;;;;11.30;10.40;;;;;;;21.28;57.76;100187.94;4902746;28;97339;-84
2022/07/27 05:26:30;;;;;;;11.95;10.90;;;;;;;21.29;58.09;100197.66;4908700;28;101620;-82
2022/07/27 05:28:55;;;;;;;11.82;10.77;;;;;;;21.27;57.99;100196.09;4906784;28;96882;-82
2022/07/27 05:31:21;;;;;;;13.32;10.65;;;;;;;21.22;57.68;100191.13;4903804;28;96958;-82
2022/07/27 05:33:47;;;;;;;12.60;11.45;;;;;;;21.13;58.19;100178.53;4908158;28;97631;-82
2022/07/27 05:36:12;;;;;;;11.45;10.65;;;;;;;21.28;58.11;100200.47;4901663;28;98062;-82
2022/07/27 05:38:38;;;;;;;13.35;12.00;;;;;;;21.14;57.71;100185.53;4897225;28;96947;-82
2022/07/27 05:41:07;;;;;;;12.52;11.52;;;;;;;21.13;58.04;100168.69;4901580;28;98541;-82
2022/07/27 05:43:32;;;;;;;36.88;32.95;;;;;;;21.35;58.05;100191.84;4918512;28;97807;-81
2022/07/27 05:45:58;;;;;;;14.90;13.70;;;;;;;21.67;57.45;100185.69;4903920;28;97286;-83
2022/07/27 05:48:23;;;;;;;12.30;11.48;;;;;;;22.05;56.29;100169.16;4909845;28;96859;-82
2022/07/27 05:50:49;;;;;;;12.07;11.07;;;;;;;22.72;54.87;100191.09;4889093;28;97664;-83
2022/07/27 05:53:14;;;;;;;11.98;11.07;;;;;;;22.69;54.39;100183.34;4878515;28;101759;-83
2022/07/27 05:55:40;;;;;;;11.80;10.90;;;;;;;22.56;54.75;100199.63;4897837;28;101303;-85
2022/07/27 05:58:05;;;;;;;14.63;13.30;;;;;;;22.37;55.31;100195.84;4896845;28;96845;-82
2022/07/27 06:00:31;;;;;;;14.25;13.15;;;;;;;22.21;55.07;100191.94;4881473;28;96938;-82
2022/07/27 06:02:56;;;;;;;10.80;9.77;;;;;;;22.18;55.43;100209.06;4897097;28;97684;-84
2022/07/27 06:05:22;;;;;;;11.50;10.60;;;;;;;22.15;55.87;100201.28;4889209;28;100986;-81
2022/07/27 06:08:02;;;;;;;12.57;10.82;;;;;;;22.18;55.63;100198.38;4895194;28;96748;-82
2022/07/27 06:10:32;;;;;;;11.05;10.10;;;;;;;22.15;55.88;100206.63;4888332;28;97202;-83
2022/07/27 06:13:00;;;;;;;13.30;10.80;;;;;;;22.11;56.19;100208.72;4896189;28;101864;-82
2022/07/27 06:15:26;;;;;;;10.93;10.13;;;;;;;22.12;56.17;100209.56;4902713;28;97327;-81
2022/07/27 06:17:52;;;;;;;11.00;10.10;;;;;;;22.11;55.81;100208.72;4888177;28;96822;-83
2022/07/27 06:20:19;;;;;;;11.23;10.10;;;;;;;22.06;56.01;100204.75;4889728;28;97203;-80
2022/07/27 06:22:50;;;;;;;11.55;10.57;;;;;;;22.02;55.70;100190.78;4897086;28;98145;-81
2022/07/27 06:25:16;;;;;;;10.55;9.77;;;;;;;22.19;55.81;100216.09;4886979;28;101405;-81
2022/07/27 06:27:42;;;;;;;11.77;10.98;;;;;;;22.25;55.72;100209.41;4911469;28;97162;-83
2022/07/27 06:30:09;;;;;;;10.68;9.88;;;;;;;22.39;55.55;100214.44;4890777;28;96962;-82
2022/07/27 06:32:34;;;;;;;11.18;10.30;;;;;;;22.47;55.33;100211.94;4883645;28;101776;-80
2022/07/27 06:35:00;;;;;;;10.52;9.82;;;;;;;22.56;54.98;100213.00;4886419;28;100856;-82
2022/07/27 06:37:28;;;;;;;11.18;10.18;;;;;;;22.72;54.70;100220.53;4881558;28;97063;-82
2022/07/27 06:39:54;;;;;;;11.20;10.50;;;;;;;22.78;54.29;100195.94;4869567;28;97426;-81
2022/07/27 06:42:19;;;;;;;11.77;10.88;;;;;;;22.93;54.10;100204.47;4887306;28;98185;-81
2022/07/27 06:44:45;;;;;;;11.32;10.40;;;;;;;22.99;53.84;100203.94;4895805;28;101476;-81
2022/07/27 06:47:10;;;;;;;11.80;10.90;;;;;;;23.02;54.12;100209.03;4891892;28;97298;-80
2022/07/27 06:49:36;;;;;;;11.65;10.57;;;;;;;23.02;54.23;100217.91;4899417;28;97209;-80
2022/07/27 06:52:01;;;;;;;11.93;10.82;;;;;;;23.02;54.64;100209.88;4899890;28;97400;-81
2022/07/27 06:54:27;;;;;;;12.38;10.88;;;;;;;23.10;54.25;100211.88;4883645;28;101372;-80
2022/07/27 06:56:53;;;;;;;10.90;10.07;;;;;;;23.08;53.85;100199.63;4896819;28;97895;-81
2022/07/27 06:59:18;;;;;;;11.90;10.90;;;;;;;23.27;53.64;100208.56;4890229;28;96900;-80
2022/07/27 07:01:44;;;;;;;11.13;10.13;;;;;;;23.34;53.40;100205.34;4874880;28;101676;-82
2022/07/27 07:04:09;;;;;;;10.32;9.63;;;;;;;23.37;53.00;100203.22;4870199;28;101223;-82
2022/07/27 07:06:35;;;;;;;10.63;9.82;;;;;;;23.40;53.01;100204.78;4886149;28;96828;-82
2022/07/27 07:09:00;;;;;;;10.98;10.00;;;;;;;23.42;52.73;100216.22;4916186;28;96933;-80
2022/07/27 07:11:25;;;;;;;10.10;9.43;;;;;;;23.42;52.82;100213.53;4899896;28;98515;-82
2022/07/27 07:13:51;;;;;;;10.85;10.02;;;;;;;24.58;50.24;100199.28;4912271;28;97583;-84
2022/07/27 07:16:16;;;;;;;10.40;9.68;;;;;;;25.46;48.40;100203.34;4915426;28;97996;-84
2022/07/27 07:18:42;;;;;;;11.18;10.27;;;;;;;25.30;48.29;100208.50;4899549;28;97429;-84
2022/07/27 07:21:08;;;;;;;10.90;10.10;;;;;;;26.43;45.90;100199.84;4912930;28;97672;-84
2022/07/27 07:23:33;;;;;;;11.27;10.48;;;;;;;26.02;46.07;100201.38;4883244;28;99745;-84
2022/07/27 07:25:59;;;;;;;11.57;10.80;;;;;;;25.98;46.52;100189.25;4899188;28;96854;-84
2022/07/27 07:28:24;;;;;;;11.63;10.70;;;;;;;26.07;46.73;100207.16;4902698;28;97018;-84
2022/07/27 07:30:50;;;;;;;11.32;10.32;;;;;;;26.36;45.87;100190.72;4898895;28;101652;-84
2022/07/27 07:33:15;;;;;;;11.30;10.55;;;;;;;26.64;45.45;100198.66;4899047;28;100936;-84
2022/07/27 07:35:41;;;;;;;10.95;9.98;;;;;;;26.31;45.89;100194.91;4898313;28;97084;-83
2022/07/27 07:38:06;;;;;;;11.05;10.23;;;;;;;26.61;45.71;100199.00;4897616;28;97616;-84
2022/07/27 07:40:32;;;;;;;11.80;10.90;;;;;;;27.21;44.14;100190.91;4914154;28;101107;-85
2022/07/27 07:43:00;;;;;;;11.30;10.55;;;;;;;27.55;43.69;100211.56;4879674;28;101420;-84
2022/07/27 07:45:27;;;;;;;11.30;10.45;;;;;;;28.80;41.21;100207.72;4902376;28;96696;-84
2022/07/27 07:47:52;;;;;;;11.30;10.30;;;;;;;29.71;39.25;100200.94;4881454;28;97080;-83
2022/07/27 07:50:18;;;;;;;11.25;10.45;;;;;;;29.57;38.67;100193.56;4894141;28;101335;-84
2022/07/27 07:52:46;;;;;;;11.02;10.30;;;;;;;29.23;39.47;100210.94;4894741;28;100617;-86
2022/07/27 07:55:12;;;;;;;11.32;10.52;;;;;;;29.42;39.28;100216.97;4918420;28;97308;-83
2022/07/27 07:57:37;;;;;;;11.23;10.23;;;;;;;29.20;39.24;100202.38;4898826;28;96990;-84
2022/07/27 08:00:06;;;;;;;10.18;9.43;;;;;;;28.39;40.11;100207.78;4896062;28;101038;-83
2022/07/27 08:02:54;;;;;;;11.55;10.65;;;;;;;29.23;38.56;100197.44;4891038;28;97530;-84
2022/07/27 08:05:20;;;;;;;10.52;9.82;;;;;;;30.68;36.25;100203.81;4893549;28;97225;-85
2022/07/27 08:07:46;;;;;;;11.93;11.02;;;;;;;30.29;36.74;100211.34;4885071;28;96993;-86
2022/07/27 08:10:14;;;;;;;12.38;11.50;;;;;;;30.16;37.00;100195.66;4894336;28;101354;-85
2022/07/27 08:12:42;;;;;;;10.93;10.13;;;;;;;30.27;36.73;100206.09;4882189;28;101386;-85
2022/07/27 08:15:09;;;;;;;10.77;9.88;;;;;;;30.77;36.08;100212.69;4897835;28;96700;-86
2022/07/27 08:17:34;;;;;;;11.00;10.30;;;;;;;31.21;35.68;100219.16;4897242;28;97146;-85
2022/07/27 08:20:00;;;;;;;10.45;9.85;;;;;;;31.00;36.06;100212.63;4894535;28;102216;-85
2022/07/27 08:22:26;;;;;;;10.93;10.05;;;;;;;31.85;34.55;100213.88;4897189;28;101875;-85
2022/07/27 08:24:51;;;;;;;11.75;10.70;;;;;;;32.13;33.71;100215.84;4913838;28;96716;-85
2022/07/27 08:27:17;;;;;;;10.75;10.05;;;;;;;31.03;35.14;100216.84;4898062;28;96994;-85
2022/07/27 08:29:43;;;;;;;10.50;9.70;;;;;;;30.11;36.45;100217.88;4895797;28;101478;-85
2022/07/27 08:32:08;;;;;;;11.18;10.27;;;;;;;29.88;36.91;100217.91;4903234;28;101000;-85
2022/07/27 08:34:34;;;;;;;17.83;16.38;;;;;;;29.68;36.89;100209.41;4871499;28;1219022;-84
2022/07/27 08:36:59;;;;;;;11.55;10.43;;;;;;;29.73;37.20;100216.97;4914696;28;96866;-85
2022/07/27 08:39:25;;;;;;;10.98;10.23;;;;;;;29.80;37.12;100220.66;4898426;28;101369;-85
2022/07/27 08:41:52;;;;;;;11.13;10.32;;;;;;;30.01;36.50;100214.56;4898835;28;97786;-85
2022/07/27 08:44:24;;;;;;;10.73;9.73;;;;;;;29.92;36.81;100215.66;4903193;28;97001;-85
2022/07/27 08:46:50;;;;;;;10.55;9.60;;;;;;;30.94;35.28;100201.72;4881212;28;96980;-85
2022/07/27 08:49:17;;;;;;;11.27;10.38;;;;;;;31.57;34.44;100201.06;4914776;28;97733;-85
2022/07/27 08:51:43;;;;;;;11.60;10.57;;;;;;;30.78;35.47;100206.28;4906686;28;99728;-84
2022/07/27 08:54:09;;;;;;;11.45;10.68;;;;;;;30.96;35.66;100205.09;4898256;28;96845;-84
2022/07/27 08:56:35;;;;;;;10.32;9.45;;;;;;;31.80;34.28;100206.31;4898750;28;97297;-85
2022/07/27 08:59:00;;;;;;;12.65;9.93;;;;;;;32.79;32.50;100210.94;4897488;28;101088;-84
2022/07/27 09:01:26;;;;;;;10.60;9.90;;;;;;;33.56;31.86;100207.16;4901080;28;101122;-84
2022/07/27 09:03:51;;;;;;;10.50;9.75;;;;;;;33.68;30.85;100206.53;4881946;28;97228;-85
2022/07/27 09:06:40;;;;;;;11.20;10.30;;;;;;;33.70;30.15;100205.31;4898624;28;96990;-84
2022/07/27 09:09:05;;;;;;;10.35;9.75;;;;;;;33.24;30.39;100211.41;4885358;28;101555;-85
2022/07/27 09:11:31;;;;;;;10.95;10.18;;;;;;;32.16;31.93;100213.56;4899476;28;102122;-84
2022/07/27 09:14:02;;;;;;;9.93;9.27;;;;;;;32.50;31.92;100214.72;4913498;28;97190;-85
2022/07/27 09:16:30;;;;;;;11.25;10.20;;;;;;;32.19;32.38;100199.59;4888879;28;96960;-84
2022/07/27 09:19:05;;;;;;;9.80;8.85;;;;;;;31.63;32.33;100214.91;4881107;28;100352;-85
2022/07/27 09:21:31;;;;;;;10.75;9.73;;;;;;;31.22;32.75;100210.84;4905135;28;101294;-84
2022/07/27 09:24:12;;;;;;;10.23;9.57;;;;;;;30.73;33.47;100214.09;4893626;28;97208;-85
2022/07/27 09:26:38;;;;;;;10.43;9.45;;;;;;;30.67;34.15;100218.41;4911997;28;97044;-85
2022/07/27 09:29:06;;;;;;;10.55;9.65;;;;;;;30.05;34.77;100196.97;4894158;28;102107;-85
2022/07/27 09:31:43;;;;;;;10.40;9.40;;;;;;;29.69;34.67;100219.19;4898455;28;97862;-85
2022/07/27 09:34:09;;;;;;;10.57;9.85;;;;;;;29.53;34.52;100214.69;4897457;28;96837;-85
2022/07/27 09:36:49;;;;;;;10.27;9.55;;;;;;;29.20;35.05;100221.28;4882547;28;97431;-85
2022/07/27 09:39:18;;;;;;;10.45;9.40;;;;;;;29.00;35.01;100201.91;4897654;28;100922;-85
2022/07/27 09:41:46;;;;;;;12.38;11.18;;;;;;;29.74;33.78;100215.97;4887094;28;100930;-84
2022/07/27 09:44:12;;;;;;;10.40;9.40;;;;;;;30.58;33.42;100208.69;4883677;28;96847;-85
2022/07/27 09:46:40;;;;;;;10.82;9.43;;;;;;;30.78;33.62;100206.28;4872623;28;97077;-84
2022/07/27 09:49:33;;;;;;;10.60;9.70;;;;;;;31.33;32.57;100207.66;4875729;28;101100;-85
2022/07/27 09:52:00;;;;;;;9.90;9.20;;;;;;;31.65;32.22;100213.69;4881638;28;100983;-84
2022/07/27 09:54:26;;;;;;;9.60;8.90;;;;;;;31.77;31.83;100205.88;4898046;28;97007;-85
2022/07/27 09:57:00;;;;;;;10.10;9.38;;;;;;;31.76;31.17;100204.19;4881646;28;96856;-87
2022/07/27 09:59:25;;;;;;;13.40;10.70;;;;;;;31.91;31.30;100205.00;4916372;28;98173;-85
2022/07/27 10:01:52;;;;;;;9.63;8.93;;;;;;;32.12;31.27;100200.59;4898070;28;97793;-88
2022/07/27 10:04:18;;;;;;;10.15;9.25;;;;;;;31.89;31.31;100198.06;4901024;28;96879;-86
2022/07/27 10:06:44;;;;;;;10.55;9.85;;;;;;;31.90;32.03;100203.31;4898152;28;96975;-86
2022/07/27 10:09:09;;;;;;;11.55;10.48;;;;;;;31.27;32.61;100204.84;4916890;28;97641;-85
2022/07/27 10:11:35;;;;;;;10.23;9.32;;;;;;;30.86;33.13;100198.09;4896797;28;100003;-86
2022/07/27 10:14:00;;;;;;;10.73;9.40;;;;;;;30.83;33.02;100184.88;4900951;28;98099;-85
2022/07/27 10:16:28;;;;;;;9.85;9.25;;;;;;;30.85;32.72;100206.38;4897451;28;96959;-85
2022/07/27 10:19:11;;;;;;;10.15;9.35;;;;;;;30.47;33.15;100201.00;4887833;28;101263;-87
2022/07/27 10:21:38;;;;;;;10.00;9.13;;;;;;;30.34;32.71;100198.94;4902111;28;98020;-87
2022/07/27 10:24:07;;;;;;;10.05;9.25;;;;;;;30.29;33.58;100201.34;4887199;28;96852;-85
2022/07/27 10:26:33;;;;;;;11.13;9.95;;;;;;;30.11;33.33;100192.69;4881956;28;97099;-86
2022/07/27 10:29:15;;;;;;;10.30;9.52;;;;;;;29.89;33.78;100187.09;4880557;28;101754;-85
2022/07/27 10:32:01;;;;;;;10.10;9.32;;;;;;;29.91;33.83;100200.47;4898188;28;97988;-85
2022/07/27 10:34:41;;;;;;;9.82;9.02;;;;;;;29.59;33.76;100199.63;4896822;28;97223;-85
2022/07/27 10:37:17;;;;;;;10.57;9.67;;;;;;;29.51;33.66;100194.28;4902024;28;97364;-87
2022/07/27 10:39:50;;;;;;;9.50;8.90;;;;;;;29.25;34.46;100189.16;4922691;28;97699;-85
2022/07/27 10:42:27;;;;;;;10.48;9.55;;;;;;;29.07;34.21;100202.94;4897318;28;101288;-85
2022/07/27 10:44:57;;;;;;;10.23;9.43;;;;;;;29.03;34.78;100205.16;4896920;28;97760;-88
2022/07/27 10:47:41;;;;;;;9.82;8.90;;;;;;;28.84;34.71;100214.47;4912882;28;97241;-84
2022/07/27 10:50:16;;;;;;;10.05;8.90;;;;;;;28.70;34.69;100217.88;4881540;28;101525;-86
2022/07/27 10:52:48;;;;;;;10.13;9.30;;;;;;;28.76;34.59;100214.47;4912726;28;101260;-86
2022/07/27 10:55:32;;;;;;;9.98;8.43;;;;;;;28.62;34.88;100202.53;4913239;28;96804;-84
2022/07/27 10:58:13;;;;;;;10.60;8.80;;;;;;;28.69;34.96;100220.75;4914203;28;96924;-84
2022/07/27 11:00:47;;;;;;;;;;;;;;;28.56;34.57;100222.09;4916009;28;101296;-84
2022/07/27 11:03:26;;;;;;;10.27;8.63;;;;;;;28.57;34.44;100225.66;4883455;28;101111;-86
2022/07/27 11:06:06;;;;;;;8.13;7.32;;;;;;;28.69;33.90;100213.50;4913714;28;96749;-84
2022/07/27 11:08:34;;;;;;;13.25;8.38;;;;;;;28.74;33.95;100205.72;4890526;28;97224;-84
2022/07/27 11:11:00;;;;;;;8.75;7.82;;;;;;;28.76;34.12;100202.84;4876052;28;100669;-85
2022/07/27 11:13:27;;;;;;;8.77;8.00;;;;;;;28.65;33.59;100199.50;4877005;28;101214;-84